sensor_id;sensor_type;location;lat;lon;timestamp;temperature;humidity
4050;DHT22;2039;50.894;6.888;2023-04-03T00:01:38;5.20;91.20
4050;DHT22;2039;50.894;6.888;2023-04-03T00:04:05;5.20;93.40
4050;DHT22;2039;50.894;6.888;2023-04-03T00:06:31;5.20;90.90
4050;DHT22;2039;50.894;6.888;2023-04-03T00:08:57;5.30;86.00
4050;DHT22;2039;50.894;6.888;2023-04-03T00:11:23;5.30;79.50
4050;DHT22;2039;50.894;6.888;2023-04-03T00:13:49;5.30;81.20
4050;DHT22;2039;50.894;6.888;2023-04-03T00:16:15;5.30;88.90
4050;DHT22;2039;50.894;6.888;2023-04-03T00:18:41;5.30;91.10
4050;DHT22;2039;50.894;6.888;2023-04-03T00:21:08;5.30;86.10
4050;DHT22;2039;50.894;6.888;2023-04-03T00:23:34;5.20;81.20
4050;DHT22;2039;50.894;6.888;2023-04-03T00:26:00;5.20;88.20
4050;DHT22;2039;50.894;6.888;2023-04-03T00:28:25;5.20;90.70
4050;DHT22;2039;50.894;6.888;2023-04-03T00:30:52;5.10;95.30
4050;DHT22;2039;50.894;6.888;2023-04-03T00:33:18;5.10;98.90
4050;DHT22;2039;50.894;6.888;2023-04-03T00:35:47;5.10;99.90
4050;DHT22;2039;50.894;6.888;2023-04-03T00:38:14;5.10;94.10
4050;DHT22;2039;50.894;6.888;2023-04-03T00:40:44;5.00;97.40
4050;DHT22;2039;50.894;6.888;2023-04-03T00:43:13;4.90;99.90
4050;DHT22;2039;50.894;6.888;2023-04-03T00:45:42;4.90;99.90
4050;DHT22;2039;50.894;6.888;2023-04-03T00:48:13;4.90;99.90
4050;DHT22;2039;50.894;6.888;2023-04-03T00:50:42;4.80;99.90
4050;DHT22;2039;50.894;6.888;2023-04-03T00:53:12;4.80;99.90
4050;DHT22;2039;50.894;6.888;2023-04-03T00:55:38;4.80;99.90
4050;DHT22;2039;50.894;6.888;2023-04-03T00:58:06;4.80;99.90
4050;DHT22;2039;50.894;6.888;2023-04-03T01:00:33;4.80;99.90
4050;DHT22;2039;50.894;6.888;2023-04-03T01:02:59;4.80;99.90
4050;DHT22;2039;50.894;6.888;2023-04-03T01:05:26;4.70;99.90
4050;DHT22;2039;50.894;6.888;2023-04-03T01:07:52;4.70;99.90
4050;DHT22;2039;50.894;6.888;2023-04-03T01:10:19;4.70;99.90
4050;DHT22;2039;50.894;6.888;2023-04-03T01:12:48;4.60;99.90
4050;DHT22;2039;50.894;6.888;2023-04-03T01:15:19;4.60;99.90
4050;DHT22;2039;50.894;6.888;2023-04-03T01:17:52;4.60;94.80
4050;DHT22;2039;50.894;6.888;2023-04-03T01:25:24;4.60;70.00
4050;DHT22;2039;50.894;6.888;2023-04-03T01:27:50;4.60;61.10
4050;DHT22;2039;50.894;6.888;2023-04-03T01:30:18;4.50;51.90
4050;DHT22;2039;50.894;6.888;2023-04-03T01:32:45;4.60;53.70
4050;DHT22;2039;50.894;6.888;2023-04-03T01:35:11;4.70;57.10
4050;DHT22;2039;50.894;6.888;2023-04-03T01:37:37;4.60;64.40
4050;DHT22;2039;50.894;6.888;2023-04-03T01:40:06;4.60;54.30
4050;DHT22;2039;50.894;6.888;2023-04-03T01:42:32;4.60;52.00
4050;DHT22;2039;50.894;6.888;2023-04-03T01:44:58;4.50;65.10
4050;DHT22;2039;50.894;6.888;2023-04-03T01:47:23;4.30;80.80
4050;DHT22;2039;50.894;6.888;2023-04-03T01:49:49;4.30;88.80
4050;DHT22;2039;50.894;6.888;2023-04-03T01:52:15;4.10;91.00
4050;DHT22;2039;50.894;6.888;2023-04-03T01:54:40;4.00;94.50
4050;DHT22;2039;50.894;6.888;2023-04-03T01:57:06;3.90;97.70
4050;DHT22;2039;50.894;6.888;2023-04-03T01:59:32;3.70;99.70
4050;DHT22;2039;50.894;6.888;2023-04-03T02:01:57;3.70;99.90
4050;DHT22;2039;50.894;6.888;2023-04-03T02:04:23;3.70;99.90
4050;DHT22;2039;50.894;6.888;2023-04-03T02:06:49;3.60;99.90
4050;DHT22;2039;50.894;6.888;2023-04-03T02:09:15;3.50;99.90
4050;DHT22;2039;50.894;6.888;2023-04-03T02:11:40;3.40;99.90
4050;DHT22;2039;50.894;6.888;2023-04-03T02:14:06;3.30;99.90
4050;DHT22;2039;50.894;6.888;2023-04-03T02:16:32;3.20;99.90
4050;DHT22;2039;50.894;6.888;2023-04-03T02:18:58;3.10;99.90
4050;DHT22;2039;50.894;6.888;2023-04-03T02:21:23;3.10;99.90
4050;DHT22;2039;50.894;6.888;2023-04-03T02:23:49;3.00;99.90
4050;DHT22;2039;50.894;6.888;2023-04-03T02:26:16;2.90;99.90
4050;DHT22;2039;50.894;6.888;2023-04-03T02:28:42;2.80;99.90
4050;DHT22;2039;50.894;6.888;2023-04-03T02:31:09;2.80;99.90
4050;DHT22;2039;50.894;6.888;2023-04-03T02:33:36;2.80;99.90
4050;DHT22;2039;50.894;6.888;2023-04-03T02:36:03;2.80;99.90
4050;DHT22;2039;50.894;6.888;2023-04-03T02:38:29;2.80;99.90
4050;DHT22;2039;50.894;6.888;2023-04-03T02:41:07;2.70;99.90
4050;DHT22;2039;50.894;6.888;2023-04-03T02:43:33;2.70;99.90
4050;DHT22;2039;50.894;6.888;2023-04-03T02:45:59;2.80;99.90
4050;DHT22;2039;50.894;6.888;2023-04-03T02:48:25;2.70;99.90
4050;DHT22;2039;50.894;6.888;2023-04-03T02:50:50;2.60;99.90
4050;DHT22;2039;50.894;6.888;2023-04-03T02:53:16;2.60;99.90
4050;DHT22;2039;50.894;6.888;2023-04-03T02:55:42;2.60;99.90
4050;DHT22;2039;50.894;6.888;2023-04-03T02:58:08;2.60;99.90
4050;DHT22;2039;50.894;6.888;2023-04-03T03:00:33;2.50;99.90
4050;DHT22;2039;50.894;6.888;2023-04-03T03:02:59;2.40;99.90
4050;DHT22;2039;50.894;6.888;2023-04-03T03:05:26;2.40;99.90
4050;DHT22;2039;50.894;6.888;2023-04-03T03:07:53;2.30;99.90
4050;DHT22;2039;50.894;6.888;2023-04-03T03:10:18;2.20;99.90
4050;DHT22;2039;50.894;6.888;2023-04-03T03:12:44;2.20;99.90
4050;DHT22;2039;50.894;6.888;2023-04-03T03:15:10;2.20;99.90
4050;DHT22;2039;50.894;6.888;2023-04-03T03:17:36;2.10;99.90
4050;DHT22;2039;50.894;6.888;2023-04-03T03:20:03;2.10;99.90
4050;DHT22;2039;50.894;6.888;2023-04-03T03:22:29;2.00;99.90
4050;DHT22;2039;50.894;6.888;2023-04-03T03:24:55;2.10;99.90
4050;DHT22;2039;50.894;6.888;2023-04-03T03:27:21;2.00;99.90
4050;DHT22;2039;50.894;6.888;2023-04-03T03:29:46;2.00;99.90
4050;DHT22;2039;50.894;6.888;2023-04-03T03:32:12;2.00;99.90
4050;DHT22;2039;50.894;6.888;2023-04-03T03:34:38;2.00;99.90
4050;DHT22;2039;50.894;6.888;2023-04-03T03:37:04;2.00;99.90
4050;DHT22;2039;50.894;6.888;2023-04-03T03:39:30;2.00;99.90
4050;DHT22;2039;50.894;6.888;2023-04-03T03:41:55;1.90;99.90
4050;DHT22;2039;50.894;6.888;2023-04-03T03:44:21;1.90;99.90
4050;DHT22;2039;50.894;6.888;2023-04-03T03:46:47;1.90;99.90
4050;DHT22;2039;50.894;6.888;2023-04-03T03:49:12;1.90;99.90
4050;DHT22;2039;50.894;6.888;2023-04-03T03:51:39;1.80;99.90
4050;DHT22;2039;50.894;6.888;2023-04-03T03:54:05;1.80;99.90
4050;DHT22;2039;50.894;6.888;2023-04-03T03:56:31;1.70;99.90
4050;DHT22;2039;50.894;6.888;2023-04-03T03:58:56;1.80;99.90
4050;DHT22;2039;50.894;6.888;2023-04-03T04:01:23;1.80;99.90
4050;DHT22;2039;50.894;6.888;2023-04-03T04:03:49;1.70;99.90
4050;DHT22;2039;50.894;6.888;2023-04-03T04:06:14;1.80;99.90
4050;DHT22;2039;50.894;6.888;2023-04-03T04:08:40;1.70;99.90
4050;DHT22;2039;50.894;6.888;2023-04-03T04:11:09;1.80;99.90
4050;DHT22;2039;50.894;6.888;2023-04-03T04:13:34;1.90;99.90
4050;DHT22;2039;50.894;6.888;2023-04-03T04:16:00;1.90;99.90
4050;DHT22;2039;50.894;6.888;2023-04-03T04:18:26;1.90;99.90
4050;DHT22;2039;50.894;6.888;2023-04-03T04:20:52;1.90;99.90
4050;DHT22;2039;50.894;6.888;2023-04-03T04:23:18;1.80;99.90
4050;DHT22;2039;50.894;6.888;2023-04-03T04:25:45;1.70;99.90
4050;DHT22;2039;50.894;6.888;2023-04-03T04:28:11;1.70;99.90
4050;DHT22;2039;50.894;6.888;2023-04-03T04:30:37;1.60;99.90
4050;DHT22;2039;50.894;6.888;2023-04-03T04:33:03;1.60;99.90
4050;DHT22;2039;50.894;6.888;2023-04-03T04:35:29;1.60;99.90
4050;DHT22;2039;50.894;6.888;2023-04-03T04:37:54;1.70;99.90
4050;DHT22;2039;50.894;6.888;2023-04-03T04:40:20;1.60;99.90
4050;DHT22;2039;50.894;6.888;2023-04-03T04:42:46;1.60;99.90
4050;DHT22;2039;50.894;6.888;2023-04-03T04:45:12;1.70;99.90
4050;DHT22;2039;50.894;6.888;2023-04-03T04:47:38;1.80;99.90
4050;DHT22;2039;50.894;6.888;2023-04-03T04:50:04;1.70;99.90
4050;DHT22;2039;50.894;6.888;2023-04-03T04:52:30;1.70;99.90
4050;DHT22;2039;50.894;6.888;2023-04-03T04:54:55;1.60;99.90
4050;DHT22;2039;50.894;6.888;2023-04-03T04:57:21;1.60;99.90
4050;DHT22;2039;50.894;6.888;2023-04-03T04:59:47;1.60;99.90
4050;DHT22;2039;50.894;6.888;2023-04-03T05:02:12;1.50;99.90
4050;DHT22;2039;50.894;6.888;2023-04-03T05:04:38;1.60;99.90
4050;DHT22;2039;50.894;6.888;2023-04-03T05:07:04;1.70;99.90
4050;DHT22;2039;50.894;6.888;2023-04-03T05:09:29;1.70;99.90
4050;DHT22;2039;50.894;6.888;2023-04-03T05:11:55;1.70;99.90
4050;DHT22;2039;50.894;6.888;2023-04-03T05:14:21;1.80;99.90
4050;DHT22;2039;50.894;6.888;2023-04-03T05:16:47;1.70;99.90
4050;DHT22;2039;50.894;6.888;2023-04-03T05:19:13;1.70;99.90
4050;DHT22;2039;50.894;6.888;2023-04-03T05:21:39;1.70;99.90
4050;DHT22;2039;50.894;6.888;2023-04-03T05:24:05;1.60;99.90
4050;DHT22;2039;50.894;6.888;2023-04-03T05:26:34;1.70;99.90
4050;DHT22;2039;50.894;6.888;2023-04-03T05:29:01;1.70;99.90
4050;DHT22;2039;50.894;6.888;2023-04-03T05:31:27;1.70;99.90
4050;DHT22;2039;50.894;6.888;2023-04-03T05:33:55;1.60;99.90
4050;DHT22;2039;50.894;6.888;2023-04-03T05:36:21;1.80;99.90
4050;DHT22;2039;50.894;6.888;2023-04-03T05:38:47;1.80;99.90
4050;DHT22;2039;50.894;6.888;2023-04-03T05:41:13;1.80;99.90
4050;DHT22;2039;50.894;6.888;2023-04-03T05:43:42;1.80;99.90
4050;DHT22;2039;50.894;6.888;2023-04-03T05:46:16;1.70;99.90
4050;DHT22;2039;50.894;6.888;2023-04-03T05:48:43;1.70;99.90
4050;DHT22;2039;50.894;6.888;2023-04-03T05:51:18;1.80;99.90
4050;DHT22;2039;50.894;6.888;2023-04-03T05:53:44;1.90;99.90
4050;DHT22;2039;50.894;6.888;2023-04-03T05:56:11;1.90;99.90
4050;DHT22;2039;50.894;6.888;2023-04-03T05:58:37;2.00;99.90
4050;DHT22;2039;50.894;6.888;2023-04-03T06:01:02;2.00;99.90
4050;DHT22;2039;50.894;6.888;2023-04-03T06:03:28;2.00;99.90
4050;DHT22;2039;50.894;6.888;2023-04-03T06:05:54;2.00;99.90
4050;DHT22;2039;50.894;6.888;2023-04-03T06:08:20;2.10;99.90
4050;DHT22;2039;50.894;6.888;2023-04-03T06:10:45;2.20;99.90
4050;DHT22;2039;50.894;6.888;2023-04-03T06:13:12;2.20;99.90
4050;DHT22;2039;50.894;6.888;2023-04-03T06:15:37;2.20;99.90
4050;DHT22;2039;50.894;6.888;2023-04-03T06:18:05;2.40;99.90
4050;DHT22;2039;50.894;6.888;2023-04-03T06:20:30;2.50;99.90
4050;DHT22;2039;50.894;6.888;2023-04-03T06:22:56;2.50;99.90
4050;DHT22;2039;50.894;6.888;2023-04-03T06:25:22;2.60;99.90
4050;DHT22;2039;50.894;6.888;2023-04-03T06:27:48;2.60;99.90
4050;DHT22;2039;50.894;6.888;2023-04-03T06:30:14;2.70;99.90
4050;DHT22;2039;50.894;6.888;2023-04-03T06:32:40;2.70;99.90
4050;DHT22;2039;50.894;6.888;2023-04-03T06:35:06;2.80;99.90
4050;DHT22;2039;50.894;6.888;2023-04-03T06:37:32;2.90;99.90
4050;DHT22;2039;50.894;6.888;2023-04-03T06:39:58;3.00;99.90
4050;DHT22;2039;50.894;6.888;2023-04-03T06:42:25;3.10;93.20
4050;DHT22;2039;50.894;6.888;2023-04-03T06:44:51;3.30;93.90
4050;DHT22;2039;50.894;6.888;2023-04-03T06:47:24;3.40;79.50
4050;DHT22;2039;50.894;6.888;2023-04-03T06:49:53;3.50;66.90
4050;DHT22;2039;50.894;6.888;2023-04-03T06:52:19;3.50;59.20
4050;DHT22;2039;50.894;6.888;2023-04-03T06:54:44;3.50;59.10
4050;DHT22;2039;50.894;6.888;2023-04-03T06:57:10;3.60;47.10
4050;DHT22;2039;50.894;6.888;2023-04-03T06:59:36;3.60;52.90
4050;DHT22;2039;50.894;6.888;2023-04-03T07:02:05;3.70;43.70
4050;DHT22;2039;50.894;6.888;2023-04-03T07:04:31;3.70;44.40
4050;DHT22;2039;50.894;6.888;2023-04-03T07:06:57;3.80;43.70
4050;DHT22;2039;50.894;6.888;2023-04-03T07:09:28;3.90;39.20
4050;DHT22;2039;50.894;6.888;2023-04-03T07:11:54;3.90;32.80
4050;DHT22;2039;50.894;6.888;2023-04-03T07:14:23;4.00;37.20
4050;DHT22;2039;50.894;6.888;2023-04-03T07:16:48;4.10;33.10
4050;DHT22;2039;50.894;6.888;2023-04-03T07:19:14;4.10;25.80
4050;DHT22;2039;50.894;6.888;2023-04-03T07:21:42;4.20;27.50
4050;DHT22;2039;50.894;6.888;2023-04-03T07:24:08;4.30;22.40
4050;DHT22;2039;50.894;6.888;2023-04-03T07:26:34;4.40;26.70
4050;DHT22;2039;50.894;6.888;2023-04-03T07:29:00;4.40;18.40
4050;DHT22;2039;50.894;6.888;2023-04-03T07:31:26;4.40;13.60
4050;DHT22;2039;50.894;6.888;2023-04-03T07:33:52;4.50;11.90
4050;DHT22;2039;50.894;6.888;2023-04-03T07:36:20;4.50;14.20
4050;DHT22;2039;50.894;6.888;2023-04-03T07:38:46;4.60;17.70
4050;DHT22;2039;50.894;6.888;2023-04-03T07:41:18;4.60;9.30
4050;DHT22;2039;50.894;6.888;2023-04-03T07:43:44;4.70;7.20
4050;DHT22;2039;50.894;6.888;2023-04-03T07:46:10;4.70;5.90
4050;DHT22;2039;50.894;6.888;2023-04-03T07:48:36;4.70;7.10
4050;DHT22;2039;50.894;6.888;2023-04-03T07:51:03;4.80;5.00
4050;DHT22;2039;50.894;6.888;2023-04-03T07:53:29;4.80;2.50
4050;DHT22;2039;50.894;6.888;2023-04-03T07:55:57;4.90;3.20
4050;DHT22;2039;50.894;6.888;2023-04-03T07:58:23;4.90;1.00
4050;DHT22;2039;50.894;6.888;2023-04-03T08:00:48;5.00;1.80
4050;DHT22;2039;50.894;6.888;2023-04-03T08:03:14;5.00;1.00
4050;DHT22;2039;50.894;6.888;2023-04-03T08:05:46;4.90;1.00
4050;DHT22;2039;50.894;6.888;2023-04-03T08:08:14;4.90;1.00
4050;DHT22;2039;50.894;6.888;2023-04-03T08:10:41;5.10;1.80
4050;DHT22;2039;50.894;6.888;2023-04-03T08:13:07;5.20;1.00
4050;DHT22;2039;50.894;6.888;2023-04-03T08:15:33;5.20;1.00
4050;DHT22;2039;50.894;6.888;2023-04-03T08:18:00;5.30;1.00
4050;DHT22;2039;50.894;6.888;2023-04-03T08:20:26;5.30;1.00
4050;DHT22;2039;50.894;6.888;2023-04-03T08:22:53;5.30;1.00
4050;DHT22;2039;50.894;6.888;2023-04-03T08:25:18;5.20;1.00
4050;DHT22;2039;50.894;6.888;2023-04-03T08:27:45;5.30;1.00
4050;DHT22;2039;50.894;6.888;2023-04-03T08:30:12;5.30;1.00
4050;DHT22;2039;50.894;6.888;2023-04-03T08:32:40;5.40;1.00
4050;DHT22;2039;50.894;6.888;2023-04-03T08:35:10;5.40;1.00
4050;DHT22;2039;50.894;6.888;2023-04-03T08:37:36;5.50;1.00
4050;DHT22;2039;50.894;6.888;2023-04-03T08:40:03;5.40;1.00
4050;DHT22;2039;50.894;6.888;2023-04-03T08:42:45;5.40;1.00
4050;DHT22;2039;50.894;6.888;2023-04-03T08:48:04;5.50;1.00
4050;DHT22;2039;50.894;6.888;2023-04-03T08:51:00;5.60;1.00
4050;DHT22;2039;50.894;6.888;2023-04-03T08:53:33;5.70;1.00
4050;DHT22;2039;50.894;6.888;2023-04-03T08:56:06;5.80;1.00
4050;DHT22;2039;50.894;6.888;2023-04-03T08:58:52;5.80;1.00
4050;DHT22;2039;50.894;6.888;2023-04-03T09:01:26;5.90;1.00
4050;DHT22;2039;50.894;6.888;2023-04-03T09:03:53;6.00;1.00
4050;DHT22;2039;50.894;6.888;2023-04-03T09:06:26;6.10;1.00
4050;DHT22;2039;50.894;6.888;2023-04-03T09:12:25;6.10;1.00
4050;DHT22;2039;50.894;6.888;2023-04-03T09:26:08;6.20;1.00
4050;DHT22;2039;50.894;6.888;2023-04-03T09:28:39;6.30;1.00
4050;DHT22;2039;50.894;6.888;2023-04-03T09:31:26;6.40;1.00
4050;DHT22;2039;50.894;6.888;2023-04-03T09:33:57;6.60;1.00
4050;DHT22;2039;50.894;6.888;2023-04-03T09:39:23;6.70;1.00
4050;DHT22;2039;50.894;6.888;2023-04-03T09:42:19;6.70;1.00
4050;DHT22;2039;50.894;6.888;2023-04-03T09:47:29;7.10;1.00
4050;DHT22;2039;50.894;6.888;2023-04-03T09:52:44;7.10;1.00
4050;DHT22;2039;50.894;6.888;2023-04-03T09:55:28;7.30;1.00
4050;DHT22;2039;50.894;6.888;2023-04-03T09:58:25;7.40;1.00
4050;DHT22;2039;50.894;6.888;2023-04-03T10:01:32;7.50;1.00
4050;DHT22;2039;50.894;6.888;2023-04-03T10:04:17;7.50;1.00
4050;DHT22;2039;50.894;6.888;2023-04-03T10:06:47;7.70;1.00
4050;DHT22;2039;50.894;6.888;2023-04-03T10:20:34;7.80;1.00
4050;DHT22;2039;50.894;6.888;2023-04-03T10:31:50;8.10;1.00
4050;DHT22;2039;50.894;6.888;2023-04-03T10:34:28;8.30;1.00
4050;DHT22;2039;50.894;6.888;2023-04-03T10:37:22;8.60;1.00
4050;DHT22;2039;50.894;6.888;2023-04-03T10:40:01;8.90;1.00
4050;DHT22;2039;50.894;6.888;2023-04-03T10:43:13;9.10;1.00
4050;DHT22;2039;50.894;6.888;2023-04-03T10:48:40;9.10;1.00
4050;DHT22;2039;50.894;6.888;2023-04-03T10:59:00;9.40;1.00
4050;DHT22;2039;50.894;6.888;2023-04-03T11:01:32;9.40;1.00
4050;DHT22;2039;50.894;6.888;2023-04-03T11:04:04;9.40;1.00
4050;DHT22;2039;50.894;6.888;2023-04-03T11:06:45;9.30;1.00
4050;DHT22;2039;50.894;6.888;2023-04-03T11:09:30;9.40;1.00
4050;DHT22;2039;50.894;6.888;2023-04-03T11:12:04;9.40;1.00
4050;DHT22;2039;50.894;6.888;2023-04-03T11:14:38;9.70;1.00
4050;DHT22;2039;50.894;6.888;2023-04-03T11:20:21;9.50;1.00
4050;DHT22;2039;50.894;6.888;2023-04-03T11:28:33;9.20;1.00
4050;DHT22;2039;50.894;6.888;2023-04-03T11:37:39;9.30;1.00
4050;DHT22;2039;50.894;6.888;2023-04-03T11:40:25;9.40;1.00
4050;DHT22;2039;50.894;6.888;2023-04-03T11:42:53;9.50;1.00
4050;DHT22;2039;50.894;6.888;2023-04-03T11:48:09;9.90;1.00
4050;DHT22;2039;50.894;6.888;2023-04-03T11:50:51;10.20;1.00
4050;DHT22;2039;50.894;6.888;2023-04-03T11:55:53;10.30;1.00
4050;DHT22;2039;50.894;6.888;2023-04-03T11:58:34;10.00;1.00
4050;DHT22;2039;50.894;6.888;2023-04-03T12:01:10;10.10;1.00
4050;DHT22;2039;50.894;6.888;2023-04-03T12:19:46;10.40;1.00
4050;DHT22;2039;50.894;6.888;2023-04-03T12:24:30;10.30;1.00
4050;DHT22;2039;50.894;6.888;2023-04-03T12:43:39;10.90;1.00
4050;DHT22;2039;50.894;6.888;2023-04-03T12:48:57;10.80;1.00
4050;DHT22;2039;50.894;6.888;2023-04-03T12:51:42;11.10;1.00
4050;DHT22;2039;50.894;6.888;2023-04-03T12:57:32;11.20;1.00
4050;DHT22;2039;50.894;6.888;2023-04-03T12:59:58;11.20;1.00
4050;DHT22;2039;50.894;6.888;2023-04-03T13:02:35;11.20;1.00
4050;DHT22;2039;50.894;6.888;2023-04-03T13:05:09;11.30;1.00
4050;DHT22;2039;50.894;6.888;2023-04-03T13:07:37;11.30;1.00
4050;DHT22;2039;50.894;6.888;2023-04-03T13:12:34;11.00;1.00
4050;DHT22;2039;50.894;6.888;2023-04-03T13:15:13;10.80;1.00
4050;DHT22;2039;50.894;6.888;2023-04-03T13:17:40;10.80;1.00
4050;DHT22;2039;50.894;6.888;2023-04-03T13:20:15;11.00;1.00
4050;DHT22;2039;50.894;6.888;2023-04-03T13:22:55;11.20;1.00
4050;DHT22;2039;50.894;6.888;2023-04-03T13:25:23;11.20;1.00
4050;DHT22;2039;50.894;6.888;2023-04-03T13:27:50;11.10;1.00
4050;DHT22;2039;50.894;6.888;2023-04-03T13:30:36;11.30;1.00
4050;DHT22;2039;50.894;6.888;2023-04-03T13:33:23;11.20;1.00
4050;DHT22;2039;50.894;6.888;2023-04-03T13:36:00;11.40;1.00
4050;DHT22;2039;50.894;6.888;2023-04-03T13:38:28;11.40;1.00
4050;DHT22;2039;50.894;6.888;2023-04-03T13:41:02;11.30;1.00
4050;DHT22;2039;50.894;6.888;2023-04-03T13:43:38;11.30;1.00
4050;DHT22;2039;50.894;6.888;2023-04-03T13:46:30;11.10;1.00
4050;DHT22;2039;50.894;6.888;2023-04-03T13:48:59;11.10;1.00
4050;DHT22;2039;50.894;6.888;2023-04-03T13:51:42;11.40;1.00
4050;DHT22;2039;50.894;6.888;2023-04-03T13:57:00;11.30;1.00
4050;DHT22;2039;50.894;6.888;2023-04-03T13:59:34;11.40;1.00
4050;DHT22;2039;50.894;6.888;2023-04-03T14:04:30;11.20;1.00
4050;DHT22;2039;50.894;6.888;2023-04-03T14:06:57;11.10;1.00
4050;DHT22;2039;50.894;6.888;2023-04-03T14:09:25;10.90;1.00
4050;DHT22;2039;50.894;6.888;2023-04-03T14:11:54;11.10;1.00
4050;DHT22;2039;50.894;6.888;2023-04-03T14:14:27;11.10;1.00
4050;DHT22;2039;50.894;6.888;2023-04-03T14:16:58;11.40;1.00
4050;DHT22;2039;50.894;6.888;2023-04-03T14:19:34;11.70;1.00
4050;DHT22;2039;50.894;6.888;2023-04-03T14:22:01;11.50;1.00
4050;DHT22;2039;50.894;6.888;2023-04-03T14:24:30;11.20;1.00
4050;DHT22;2039;50.894;6.888;2023-04-03T14:26:55;11.20;1.00
4050;DHT22;2039;50.894;6.888;2023-04-03T14:29:22;11.30;1.00
4050;DHT22;2039;50.894;6.888;2023-04-03T14:31:50;11.50;1.00
4050;DHT22;2039;50.894;6.888;2023-04-03T14:34:16;11.50;1.00
4050;DHT22;2039;50.894;6.888;2023-04-03T14:36:43;11.30;1.00
4050;DHT22;2039;50.894;6.888;2023-04-03T14:39:17;11.30;1.00
4050;DHT22;2039;50.894;6.888;2023-04-03T14:41:44;11.20;1.00
4050;DHT22;2039;50.894;6.888;2023-04-03T14:44:10;11.00;1.00
4050;DHT22;2039;50.894;6.888;2023-04-03T14:46:38;11.10;1.00
4050;DHT22;2039;50.894;6.888;2023-04-03T14:49:15;11.30;1.00
4050;DHT22;2039;50.894;6.888;2023-04-03T14:51:43;11.50;1.00
4050;DHT22;2039;50.894;6.888;2023-04-03T14:54:18;11.20;1.00
4050;DHT22;2039;50.894;6.888;2023-04-03T14:56:47;11.00;1.00
4050;DHT22;2039;50.894;6.888;2023-04-03T14:59:13;11.30;1.00
4050;DHT22;2039;50.894;6.888;2023-04-03T15:01:39;11.20;1.00
4050;DHT22;2039;50.894;6.888;2023-04-03T15:04:17;11.40;1.00
4050;DHT22;2039;50.894;6.888;2023-04-03T15:06:43;11.50;1.00
4050;DHT22;2039;50.894;6.888;2023-04-03T15:09:19;11.20;1.00
4050;DHT22;2039;50.894;6.888;2023-04-03T15:11:46;11.30;1.00
4050;DHT22;2039;50.894;6.888;2023-04-03T15:14:12;11.20;1.00
4050;DHT22;2039;50.894;6.888;2023-04-03T15:16:37;11.30;1.00
4050;DHT22;2039;50.894;6.888;2023-04-03T15:19:03;11.40;1.00
4050;DHT22;2039;50.894;6.888;2023-04-03T15:21:29;11.70;1.00
4050;DHT22;2039;50.894;6.888;2023-04-03T15:23:55;11.60;1.00
4050;DHT22;2039;50.894;6.888;2023-04-03T15:26:21;11.50;1.00
4050;DHT22;2039;50.894;6.888;2023-04-03T15:28:46;11.40;1.00
4050;DHT22;2039;50.894;6.888;2023-04-03T15:31:12;11.20;1.00
4050;DHT22;2039;50.894;6.888;2023-04-03T15:33:38;11.30;1.00
4050;DHT22;2039;50.894;6.888;2023-04-03T15:36:04;11.50;1.00
4050;DHT22;2039;50.894;6.888;2023-04-03T15:38:30;11.60;1.00
4050;DHT22;2039;50.894;6.888;2023-04-03T15:40:56;11.60;1.00
4050;DHT22;2039;50.894;6.888;2023-04-03T15:43:22;11.70;1.00
4050;DHT22;2039;50.894;6.888;2023-04-03T15:45:49;11.70;1.00
4050;DHT22;2039;50.894;6.888;2023-04-03T15:48:16;11.80;1.00
4050;DHT22;2039;50.894;6.888;2023-04-03T15:50:42;11.70;1.00
4050;DHT22;2039;50.894;6.888;2023-04-03T15:53:08;11.80;1.00
4050;DHT22;2039;50.894;6.888;2023-04-03T15:55:38;11.80;1.00
4050;DHT22;2039;50.894;6.888;2023-04-03T15:58:04;12.10;1.00
4050;DHT22;2039;50.894;6.888;2023-04-03T16:00:30;12.10;1.00
4050;DHT22;2039;50.894;6.888;2023-04-03T16:03:01;11.80;1.00
4050;DHT22;2039;50.894;6.888;2023-04-03T16:05:29;11.60;1.00
4050;DHT22;2039;50.894;6.888;2023-04-03T16:07:57;11.60;1.00
4050;DHT22;2039;50.894;6.888;2023-04-03T16:10:23;11.60;1.00
4050;DHT22;2039;50.894;6.888;2023-04-03T16:12:49;11.70;1.00
4050;DHT22;2039;50.894;6.888;2023-04-03T16:15:14;11.50;1.00
4050;DHT22;2039;50.894;6.888;2023-04-03T16:17:40;11.50;1.00
4050;DHT22;2039;50.894;6.888;2023-04-03T16:20:09;11.60;1.00
4050;DHT22;2039;50.894;6.888;2023-04-03T16:22:36;11.40;1.00
4050;DHT22;2039;50.894;6.888;2023-04-03T16:25:03;11.40;1.00
4050;DHT22;2039;50.894;6.888;2023-04-03T16:27:30;11.20;1.00
4050;DHT22;2039;50.894;6.888;2023-04-03T16:29:57;11.40;1.00
4050;DHT22;2039;50.894;6.888;2023-04-03T16:32:23;11.60;1.00
4050;DHT22;2039;50.894;6.888;2023-04-03T16:34:51;11.50;1.00
4050;DHT22;2039;50.894;6.888;2023-04-03T16:37:17;11.30;1.00
4050;DHT22;2039;50.894;6.888;2023-04-03T16:39:43;11.40;1.00
4050;DHT22;2039;50.894;6.888;2023-04-03T16:42:09;11.40;1.00
4050;DHT22;2039;50.894;6.888;2023-04-03T16:44:35;11.60;1.00
4050;DHT22;2039;50.894;6.888;2023-04-03T16:47:02;11.80;1.00
4050;DHT22;2039;50.894;6.888;2023-04-03T16:49:27;11.90;1.00
4050;DHT22;2039;50.894;6.888;2023-04-03T16:51:58;11.50;1.00
4050;DHT22;2039;50.894;6.888;2023-04-03T16:54:24;11.10;1.00
4050;DHT22;2039;50.894;6.888;2023-04-03T16:56:50;10.80;1.00
4050;DHT22;2039;50.894;6.888;2023-04-03T16:59:16;10.90;1.00
4050;DHT22;2039;50.894;6.888;2023-04-03T17:01:42;10.80;1.00
4050;DHT22;2039;50.894;6.888;2023-04-03T17:04:08;10.50;1.00
4050;DHT22;2039;50.894;6.888;2023-04-03T17:06:33;10.60;1.00
4050;DHT22;2039;50.894;6.888;2023-04-03T17:08:59;10.50;1.00
4050;DHT22;2039;50.894;6.888;2023-04-03T17:11:29;10.50;1.00
4050;DHT22;2039;50.894;6.888;2023-04-03T17:13:55;10.50;1.00
4050;DHT22;2039;50.894;6.888;2023-04-03T17:16:21;10.30;1.00
4050;DHT22;2039;50.894;6.888;2023-04-03T17:18:47;10.40;1.00
4050;DHT22;2039;50.894;6.888;2023-04-03T17:21:14;10.20;1.00
4050;DHT22;2039;50.894;6.888;2023-04-03T17:23:42;10.10;1.00
4050;DHT22;2039;50.894;6.888;2023-04-03T17:26:09;10.00;1.00
4050;DHT22;2039;50.894;6.888;2023-04-03T17:28:35;9.70;1.00
4050;DHT22;2039;50.894;6.888;2023-04-03T17:31:02;9.70;1.00
4050;DHT22;2039;50.894;6.888;2023-04-03T17:33:29;9.60;1.00
4050;DHT22;2039;50.894;6.888;2023-04-03T17:35:59;9.50;1.00
4050;DHT22;2039;50.894;6.888;2023-04-03T17:38:27;9.50;1.00
4050;DHT22;2039;50.894;6.888;2023-04-03T17:40:57;9.50;1.00
4050;DHT22;2039;50.894;6.888;2023-04-03T17:43:24;9.40;1.00
4050;DHT22;2039;50.894;6.888;2023-04-03T17:45:50;9.30;1.00
4050;DHT22;2039;50.894;6.888;2023-04-03T17:48:16;9.10;1.00
4050;DHT22;2039;50.894;6.888;2023-04-03T17:50:42;9.00;1.00
4050;DHT22;2039;50.894;6.888;2023-04-03T17:53:07;9.00;1.00
4050;DHT22;2039;50.894;6.888;2023-04-03T17:55:37;9.00;1.00
4050;DHT22;2039;50.894;6.888;2023-04-03T17:58:03;9.00;1.00
4050;DHT22;2039;50.894;6.888;2023-04-03T18:00:29;8.90;1.00
4050;DHT22;2039;50.894;6.888;2023-04-03T18:02:55;8.90;1.00
4050;DHT22;2039;50.894;6.888;2023-04-03T18:05:21;8.90;1.00
4050;DHT22;2039;50.894;6.888;2023-04-03T18:07:47;8.80;1.00
4050;DHT22;2039;50.894;6.888;2023-04-03T18:10:15;8.80;1.00
4050;DHT22;2039;50.894;6.888;2023-04-03T18:12:41;8.80;1.00
4050;DHT22;2039;50.894;6.888;2023-04-03T18:15:07;8.70;1.00
4050;DHT22;2039;50.894;6.888;2023-04-03T18:17:33;8.60;1.00
4050;DHT22;2039;50.894;6.888;2023-04-03T18:19:59;8.60;1.00
4050;DHT22;2039;50.894;6.888;2023-04-03T18:22:28;8.50;1.00
4050;DHT22;2039;50.894;6.888;2023-04-03T18:24:55;8.40;1.00
4050;DHT22;2039;50.894;6.888;2023-04-03T18:27:26;8.40;1.00
4050;DHT22;2039;50.894;6.888;2023-04-03T18:29:54;8.20;1.00
4050;DHT22;2039;50.894;6.888;2023-04-03T18:32:21;8.20;1.00
4050;DHT22;2039;50.894;6.888;2023-04-03T18:34:47;8.00;1.00
4050;DHT22;2039;50.894;6.888;2023-04-03T18:37:13;8.00;1.00
4050;DHT22;2039;50.894;6.888;2023-04-03T18:39:40;7.90;1.00
4050;DHT22;2039;50.894;6.888;2023-04-03T18:42:15;8.00;1.00